sensor_id;sensor_type;location;lat;lon;timestamp;pressure;altitude;pressure_sealevel;temperature;humidity
46015;BME280;36844;51.898;-0.874;2023-05-24T00:01:50;101504.75;;;18.98;
46015;BME280;36844;51.898;-0.874;2023-05-24T00:04:16;101504.75;;;18.98;
46015;BME280;36844;51.898;-0.874;2023-05-24T00:06:42;101502.06;;;18.98;
46015;BME280;36844;51.898;-0.874;2023-05-24T00:09:08;101511.69;;;18.99;
46015;BME280;36844;51.898;-0.874;2023-05-24T00:11:34;101505.91;;;18.97;
46015;BME280;36844;51.898;-0.874;2023-05-24T00:13:59;101501.28;;;18.98;
46015;BME280;36844;51.898;-0.874;2023-05-24T00:16:24;101503.22;;;18.97;
46015;BME280;36844;51.898;-0.874;2023-05-24T00:18:50;101503.22;;;18.97;
46015;BME280;36844;51.898;-0.874;2023-05-24T00:21:16;101509.75;;;18.96;
46015;BME280;36844;51.898;-0.874;2023-05-24T00:23:41;101512.47;;;18.96;
46015;BME280;36844;51.898;-0.874;2023-05-24T00:26:08;101510.88;;;18.95;
46015;BME280;36844;51.898;-0.874;2023-05-24T00:28:33;101514.38;;;18.96;
46015;BME280;36844;51.898;-0.874;2023-05-24T00:30:58;101510.88;;;18.95;
46015;BME280;36844;51.898;-0.874;2023-05-24T00:33:24;101509.34;;;18.94;
46015;BME280;36844;51.898;-0.874;2023-05-24T00:35:50;101507.44;;;18.95;
46015;BME280;36844;51.898;-0.874;2023-05-24T00:38:24;101503.16;;;18.94;
46015;BME280;36844;51.898;-0.874;2023-05-24T00:40:49;101503.16;;;18.94;
46015;BME280;36844;51.898;-0.874;2023-05-24T00:43:15;101502.41;;;18.93;
46015;BME280;36844;51.898;-0.874;2023-05-24T00:45:40;101497.00;;;18.93;
46015;BME280;36844;51.898;-0.874;2023-05-24T00:48:06;101500.84;;;18.92;
46015;BME280;36844;51.898;-0.874;2023-05-24T00:50:31;101502.78;;;18.92;
46015;BME280;36844;51.898;-0.874;2023-05-24T00:52:57;101504.72;;;18.91;
46015;BME280;36844;51.898;-0.874;2023-05-24T00:55:24;101497.75;;;18.90;
46015;BME280;36844;51.898;-0.874;2023-05-24T00:57:50;101502.38;;;18.90;
46015;BME280;36844;51.898;-0.874;2023-05-24T01:00:16;101505.84;;;18.90;
46015;BME280;36844;51.898;-0.874;2023-05-24T01:02:41;101495.44;;;18.89;
46015;BME280;36844;51.898;-0.874;2023-05-24T01:05:07;101499.66;;;18.90;
46015;BME280;36844;51.898;-0.874;2023-05-24T01:07:35;101494.66;;;18.88;
46015;BME280;36844;51.898;-0.874;2023-05-24T01:12:52;101493.91;;;18.88;
46015;BME280;36844;51.898;-0.874;2023-05-24T01:15:24;101495.81;;;18.87;
46015;BME280;36844;51.898;-0.874;2023-05-24T01:17:52;101493.09;;;18.87;
46015;BME280;36844;51.898;-0.874;2023-05-24T01:20:25;101491.53;;;18.86;
46015;BME280;36844;51.898;-0.874;2023-05-24T01:28:05;101489.22;;;18.85;
46015;BME280;36844;51.898;-0.874;2023-05-24T01:30:32;101488.47;;;18.84;
46015;BME280;36844;51.898;-0.874;2023-05-24T01:32:57;101499.28;;;18.84;
46015;BME280;36844;51.898;-0.874;2023-05-24T01:35:22;101498.50;;;18.84;
46015;BME280;36844;51.898;-0.874;2023-05-24T01:37:48;101496.91;;;18.83;
46015;BME280;36844;51.898;-0.874;2023-05-24T01:40:13;101494.22;;;18.83;
46015;BME280;36844;51.898;-0.874;2023-05-24T01:42:47;101484.59;;;18.82;
46015;BME280;36844;51.898;-0.874;2023-05-24T01:45:22;101479.94;;;18.82;
46015;BME280;36844;51.898;-0.874;2023-05-24T01:50:25;101487.66;;;18.80;
46015;BME280;36844;51.898;-0.874;2023-05-24T01:52:52;101491.16;;;18.81;
46015;BME280;36844;51.898;-0.874;2023-05-24T01:55:18;101493.06;;;18.80;
46015;BME280;36844;51.898;-0.874;2023-05-24T01:57:45;101491.50;;;18.79;
46015;BME280;36844;51.898;-0.874;2023-05-24T02:00:13;101486.88;;;18.80;
46015;BME280;36844;51.898;-0.874;2023-05-24T02:02:38;101488.03;;;18.78;
46015;BME280;36844;51.898;-0.874;2023-05-24T02:05:04;101478.38;;;18.77;
46015;BME280;36844;51.898;-0.874;2023-05-24T02:07:29;101468.38;;;18.78;
46015;BME280;36844;51.898;-0.874;2023-05-24T02:09:54;101472.22;;;18.77;
46015;BME280;36844;51.898;-0.874;2023-05-24T02:12:19;101472.22;;;18.77;
46015;BME280;36844;51.898;-0.874;2023-05-24T02:14:45;101468.75;;;18.77;
46015;BME280;36844;51.898;-0.874;2023-05-24T02:17:10;101463.69;;;18.75;
46015;BME280;36844;51.898;-0.874;2023-05-24T02:19:35;101463.34;;;18.77;
46015;BME280;36844;51.898;-0.874;2023-05-24T02:22:01;101463.69;;;18.75;
46015;BME280;36844;51.898;-0.874;2023-05-24T02:24:26;101461.00;;;18.75;
46015;BME280;36844;51.898;-0.874;2023-05-24T02:26:51;101466.81;;;18.73;
46015;BME280;36844;51.898;-0.874;2023-05-24T02:29:17;101471.03;;;18.74;
46015;BME280;36844;51.898;-0.874;2023-05-24T02:31:42;101476.81;;;18.73;
46015;BME280;36844;51.898;-0.874;2023-05-24T02:34:07;101469.88;;;18.72;
46015;BME280;36844;51.898;-0.874;2023-05-24T02:36:32;101480.66;;;18.72;
46015;BME280;36844;51.898;-0.874;2023-05-24T02:39:00;101483.34;;;18.72;
46015;BME280;36844;51.898;-0.874;2023-05-24T02:41:25;101475.25;;;18.72;
46015;BME280;36844;51.898;-0.874;2023-05-24T02:43:50;101480.66;;;18.72;
46015;BME280;36844;51.898;-0.874;2023-05-24T02:46:15;101481.78;;;18.71;
46015;BME280;36844;51.898;-0.874;2023-05-24T02:48:41;101482.56;;;18.71;
46015;BME280;36844;51.898;-0.874;2023-05-24T02:51:06;101472.91;;;18.70;
46015;BME280;36844;51.898;-0.874;2023-05-24T02:53:31;101468.72;;;18.69;
46015;BME280;36844;51.898;-0.874;2023-05-24T02:55:57;101464.44;;;18.68;
46015;BME280;36844;51.898;-0.874;2023-05-24T02:58:22;101473.66;;;18.67;
46015;BME280;36844;51.898;-0.874;2023-05-24T03:00:48;101472.53;;;18.68;
46015;BME280;36844;51.898;-0.874;2023-05-24T03:03:13;101479.06;;;18.67;
46015;BME280;36844;51.898;-0.874;2023-05-24T03:05:38;101475.59;;;18.67;
46015;BME280;36844;51.898;-0.874;2023-05-24T03:08:03;101480.97;;;18.67;
46015;BME280;36844;51.898;-0.874;2023-05-24T03:10:30;101476.78;;;18.66;
46015;BME280;36844;51.898;-0.874;2023-05-24T03:12:55;101484.88;;;18.66;
46015;BME280;36844;51.898;-0.874;2023-05-24T03:15:20;101476.00;;;18.65;
46015;BME280;36844;51.898;-0.874;2023-05-24T03:17:45;101484.44;;;18.64;
46015;BME280;36844;51.898;-0.874;2023-05-24T03:20:11;101489.84;;;18.64;
46015;BME280;36844;51.898;-0.874;2023-05-24T03:22:36;101489.84;;;18.64;
46015;BME280;36844;51.898;-0.874;2023-05-24T03:25:02;101489.84;;;18.64;
46015;BME280;36844;51.898;-0.874;2023-05-24T03:27:27;101488.31;;;18.63;
46015;BME280;36844;51.898;-0.874;2023-05-24T03:29:52;101493.69;;;18.63;
46015;BME280;36844;51.898;-0.874;2023-05-24T03:32:18;101488.69;;;18.61;
46015;BME280;36844;51.898;-0.874;2023-05-24T03:34:43;101483.28;;;18.61;
46015;BME280;36844;51.898;-0.874;2023-05-24T03:37:08;101479.81;;;18.61;
46015;BME280;36844;51.898;-0.874;2023-05-24T03:39:33;101485.19;;;18.61;
46015;BME280;36844;51.898;-0.874;2023-05-24T03:41:58;101479.41;;;18.59;
46015;BME280;36844;51.898;-0.874;2023-05-24T03:44:24;101482.88;;;18.59;
46015;BME280;36844;51.898;-0.874;2023-05-24T03:46:49;101474.00;;;18.59;
46015;BME280;36844;51.898;-0.874;2023-05-24T03:49:14;101477.84;;;18.58;
46015;BME280;36844;51.898;-0.874;2023-05-24T03:51:40;101477.84;;;18.58;
46015;BME280;36844;51.898;-0.874;2023-05-24T03:54:05;101474.38;;;18.57;
46015;BME280;36844;51.898;-0.874;2023-05-24T03:56:30;101479.00;;;18.57;
46015;BME280;36844;51.898;-0.874;2023-05-24T03:58:55;101472.06;;;18.56;
46015;BME280;36844;51.898;-0.874;2023-05-24T04:01:24;101474.75;;;18.56;
46015;BME280;36844;51.898;-0.874;2023-05-24T04:03:49;101470.53;;;18.55;
46015;BME280;36844;51.898;-0.874;2023-05-24T04:06:16;101475.91;;;18.55;
46015;BME280;36844;51.898;-0.874;2023-05-24T04:08:41;101474.34;;;18.54;
46015;BME280;36844;51.898;-0.874;2023-05-24T04:11:06;101474.34;;;18.54;
46015;BME280;36844;51.898;-0.874;2023-05-24T04:13:32;101477.06;;;18.54;
46015;BME280;36844;51.898;-0.874;2023-05-24T04:15:57;101471.66;;;18.54;
46015;BME280;36844;51.898;-0.874;2023-05-24T04:18:22;101470.09;;;18.53;
46015;BME280;36844;51.898;-0.874;2023-05-24T04:20:47;101463.16;;;18.52;
46015;BME280;36844;51.898;-0.874;2023-05-24T04:23:12;101459.69;;;18.51;
46015;BME280;36844;51.898;-0.874;2023-05-24T04:25:38;101459.69;;;18.51;
46015;BME280;36844;51.898;-0.874;2023-05-24T04:28:03;101460.06;;;18.50;
46015;BME280;36844;51.898;-0.874;2023-05-24T04:30:28;101460.84;;;18.50;
46015;BME280;36844;51.898;-0.874;2023-05-24T04:32:54;101469.72;;;18.51;
46015;BME280;36844;51.898;-0.874;2023-05-24T04:35:20;101470.84;;;18.50;
46015;BME280;36844;51.898;-0.874;2023-05-24T04:37:45;101470.06;;;18.49;
46015;BME280;36844;51.898;-0.874;2023-05-24T04:40:12;101466.63;;;18.49;
46015;BME280;36844;51.898;-0.874;2023-05-24T04:42:37;101472.00;;;18.49;
46015;BME280;36844;51.898;-0.874;2023-05-24T04:45:03;101478.16;;;18.49;
46015;BME280;36844;51.898;-0.874;2023-05-24T04:47:28;101463.13;;;18.48;
46015;BME280;36844;51.898;-0.874;2023-05-24T04:49:53;101469.31;;;18.49;
46015;BME280;36844;51.898;-0.874;2023-05-24T04:52:19;101470.44;;;18.48;
46015;BME280;36844;51.898;-0.874;2023-05-24T04:54:44;101460.81;;;18.47;
46015;BME280;36844;51.898;-0.874;2023-05-24T04:57:09;101463.50;;;18.47;
46015;BME280;36844;51.898;-0.874;2023-05-24T04:59:34;101471.59;;;18.47;
46015;BME280;36844;51.898;-0.874;2023-05-24T05:02:00;101473.53;;;18.46;
46015;BME280;36844;51.898;-0.874;2023-05-24T05:04:25;101457.34;;;18.46;
46015;BME280;36844;51.898;-0.874;2023-05-24T05:06:50;101460.03;;;18.46;
46015;BME280;36844;51.898;-0.874;2023-05-24T05:09:16;101461.19;;;18.45;
46015;BME280;36844;51.898;-0.874;2023-05-24T05:11:41;101460.41;;;18.45;
46015;BME280;36844;51.898;-0.874;2023-05-24T05:14:07;101459.63;;;18.44;
46015;BME280;36844;51.898;-0.874;2023-05-24T05:16:35;101462.31;;;18.44;
46015;BME280;36844;51.898;-0.874;2023-05-24T05:19:01;101475.81;;;18.44;
46015;BME280;36844;51.898;-0.874;2023-05-24T05:21:28;101473.13;;;18.44;
46015;BME280;36844;51.898;-0.874;2023-05-24T05:23:53;101478.50;;;18.44;
46015;BME280;36844;51.898;-0.874;2023-05-24T05:26:19;101478.50;;;18.44;
46015;BME280;36844;51.898;-0.874;2023-05-24T05:28:44;101469.28;;;18.45;
46015;BME280;36844;51.898;-0.874;2023-05-24T05:31:09;101475.44;;;18.46;
46015;BME280;36844;51.898;-0.874;2023-05-24T05:33:34;101472.75;;;18.46;
46015;BME280;36844;51.898;-0.874;2023-05-24T05:36:00;101475.44;;;18.46;
46015;BME280;36844;51.898;-0.874;2023-05-24T05:38:25;101475.44;;;18.46;
46015;BME280;36844;51.898;-0.874;2023-05-24T05:40:50;101478.91;;;18.46;
46015;BME280;36844;51.898;-0.874;2023-05-24T05:43:15;101474.31;;;18.47;
46015;BME280;36844;51.898;-0.874;2023-05-24T05:45:41;101467.75;;;18.48;
46015;BME280;36844;51.898;-0.874;2023-05-24T05:48:06;101468.53;;;18.48;
46015;BME280;36844;51.898;-0.874;2023-05-24T05:50:31;101475.09;;;18.51;
46015;BME280;36844;51.898;-0.874;2023-05-24T05:52:56;101475.88;;;18.51;
46015;BME280;36844;51.898;-0.874;2023-05-24T05:55:22;101475.47;;;18.53;
46015;BME280;36844;51.898;-0.874;2023-05-24T05:57:47;101488.63;;;18.54;
46015;BME280;36844;51.898;-0.874;2023-05-24T06:00:12;101480.91;;;18.56;
46015;BME280;36844;51.898;-0.874;2023-05-24T06:02:38;101488.28;;;18.59;
46015;BME280;36844;51.898;-0.874;2023-05-24T06:05:03;101484.41;;;18.60;
46015;BME280;36844;51.898;-0.874;2023-05-24T06:07:28;101487.13;;;18.64;
46015;BME280;36844;51.898;-0.874;2023-05-24T06:09:54;101497.59;;;18.65;
46015;BME280;36844;51.898;-0.874;2023-05-24T06:12:20;101501.44;;;18.68;
46015;BME280;36844;51.898;-0.874;2023-05-24T06:14:45;101500.69;;;18.71;
46015;BME280;36844;51.898;-0.874;2023-05-24T06:17:12;101503.81;;;18.73;
46015;BME280;36844;51.898;-0.874;2023-05-24T06:19:37;101498.44;;;18.77;
46015;BME280;36844;51.898;-0.874;2023-05-24T06:22:02;101505.00;;;18.79;
46015;BME280;36844;51.898;-0.874;2023-05-24T06:24:28;101508.13;;;18.81;
46015;BME280;36844;51.898;-0.874;2023-05-24T06:26:53;101509.69;;;18.86;
46015;BME280;36844;51.898;-0.874;2023-05-24T06:29:18;101520.88;;;18.88;
46015;BME280;36844;51.898;-0.874;2023-05-24T06:31:45;101508.56;;;18.90;
46015;BME280;36844;51.898;-0.874;2023-05-24T06:34:11;101518.97;;;18.92;
46015;BME280;36844;51.898;-0.874;2023-05-24T06:36:36;101527.47;;;18.94;
46015;BME280;36844;51.898;-0.874;2023-05-24T06:39:06;101514.03;;;18.97;
46015;BME280;36844;51.898;-0.874;2023-05-24T06:41:31;101509.00;;;18.99;
46015;BME280;36844;51.898;-0.874;2023-05-24T06:43:57;101505.16;;;19.00;
46015;BME280;36844;51.898;-0.874;2023-05-24T06:46:22;101507.09;;;19.03;
46015;BME280;36844;51.898;-0.874;2023-05-24T06:48:47;101509.44;;;19.05;
46015;BME280;36844;51.898;-0.874;2023-05-24T06:51:12;101504.78;;;19.05;
46015;BME280;36844;51.898;-0.874;2023-05-24T06:53:37;101507.09;;;19.03;
46015;BME280;36844;51.898;-0.874;2023-05-24T06:56:03;101509.41;;;19.01;
46015;BME280;36844;51.898;-0.874;2023-05-24T06:58:28;101504.38;;;19.00;
46015;BME280;36844;51.898;-0.874;2023-05-24T07:00:54;101500.09;;;18.99;
46015;BME280;36844;51.898;-0.874;2023-05-24T07:03:19;101493.97;;;18.98;
46015;BME280;36844;51.898;-0.874;2023-05-24T07:05:45;101502.06;;;18.98;
46015;BME280;36844;51.898;-0.874;2023-05-24T07:08:10;101493.97;;;18.98;
46015;BME280;36844;51.898;-0.874;2023-05-24T07:10:35;101498.19;;;18.99;
46015;BME280;36844;51.898;-0.874;2023-05-24T07:13:00;101498.97;;;19.00;
46015;BME280;36844;51.898;-0.874;2023-05-24T07:15:26;101510.56;;;19.00;
46015;BME280;36844;51.898;-0.874;2023-05-24T07:17:51;101514.78;;;19.01;
46015;BME280;36844;51.898;-0.874;2023-05-24T07:20:16;101507.09;;;19.03;
46015;BME280;36844;51.898;-0.874;2023-05-24T07:22:42;101505.97;;;19.04;
46015;BME280;36844;51.898;-0.874;2023-05-24T07:25:08;101510.19;;;19.05;
46015;BME280;36844;51.898;-0.874;2023-05-24T07:27:33;101524.09;;;19.07;
46015;BME280;36844;51.898;-0.874;2023-05-24T07:29:58;101521.78;;;19.09;
46015;BME280;36844;51.898;-0.874;2023-05-24T07:32:24;101523.34;;;19.10;
46015;BME280;36844;51.898;-0.874;2023-05-24T07:34:49;101515.25;;;19.10;
46015;BME280;36844;51.898;-0.874;2023-05-24T07:37:14;101518.38;;;19.12;
46015;BME280;36844;51.898;-0.874;2023-05-24T07:39:40;101516.38;;;19.13;
46015;BME280;36844;51.898;-0.874;2023-05-24T07:42:05;101518.75;;;19.14;
46015;BME280;36844;51.898;-0.874;2023-05-24T07:44:31;101516.44;;;19.16;
46015;BME280;36844;51.898;-0.874;2023-05-24T07:46:56;101519.91;;;19.17;
46015;BME280;36844;51.898;-0.874;2023-05-24T07:49:22;101521.47;;;19.18;
46015;BME280;36844;51.898;-0.874;2023-05-24T07:51:47;101521.13;;;19.19;
46015;BME280;36844;51.898;-0.874;2023-05-24T07:54:13;101521.88;;;19.20;
46015;BME280;36844;51.898;-0.874;2023-05-24T07:56:39;101526.88;;;19.21;
46015;BME280;36844;51.898;-0.874;2023-05-24T07:59:05;101521.13;;;19.19;
46015;BME280;36844;51.898;-0.874;2023-05-24T08:01:30;101523.81;;;19.19;
46015;BME280;36844;51.898;-0.874;2023-05-24T08:03:56;101523.38;;;19.17;
46015;BME280;36844;51.898;-0.874;2023-05-24T08:06:22;101525.72;;;19.15;
46015;BME280;36844;51.898;-0.874;2023-05-24T08:08:48;101522.56;;;19.13;
46015;BME280;36844;51.898;-0.874;2023-05-24T08:11:13;101523.34;;;19.10;
46015;BME280;36844;51.898;-0.874;2023-05-24T08:13:38;101521.41;;;19.07;
46015;BME280;36844;51.898;-0.874;2023-05-24T08:16:03;101522.16;;;19.04;
46015;BME280;36844;51.898;-0.874;2023-05-24T08:18:29;101515.59;;;19.02;
46015;BME280;36844;51.898;-0.874;2023-05-24T08:20:54;101517.09;;;18.99;
46015;BME280;36844;51.898;-0.874;2023-05-24T08:23:19;101506.28;;;18.96;
46015;BME280;36844;51.898;-0.874;2023-05-24T08:25:45;101512.44;;;18.93;
46015;BME280;36844;51.898;-0.874;2023-05-24T08:28:11;101501.63;;;18.89;
46015;BME280;36844;51.898;-0.874;2023-05-24T08:30:36;101505.81;;;18.87;
46015;BME280;36844;51.898;-0.874;2023-05-24T08:33:02;101503.88;;;18.84;
46015;BME280;36844;51.898;-0.874;2023-05-24T08:35:27;101506.19;;;18.82;
46015;BME280;36844;51.898;-0.874;2023-05-24T08:37:52;101505.38;;;18.77;
46015;BME280;36844;51.898;-0.874;2023-05-24T08:40:17;101507.66;;;18.75;
46015;BME280;36844;51.898;-0.874;2023-05-24T08:42:43;101509.22;;;18.73;
46015;BME280;36844;51.898;-0.874;2023-05-24T08:45:12;101507.28;;;18.70;
46015;BME280;36844;51.898;-0.874;2023-05-24T08:47:38;101502.22;;;18.68;
46015;BME280;36844;51.898;-0.874;2023-05-24T08:50:03;101503.75;;;18.66;
46015;BME280;36844;51.898;-0.874;2023-05-24T08:52:30;101502.19;;;18.65;
46015;BME280;36844;51.898;-0.874;2023-05-24T08:54:57;101498.34;;;18.62;
46015;BME280;36844;51.898;-0.874;2023-05-24T08:57:22;101498.69;;;18.61;
46015;BME280;36844;51.898;-0.874;2023-05-24T08:59:48;101499.06;;;18.59;
46015;BME280;36844;51.898;-0.874;2023-05-24T09:02:14;101498.28;;;18.59;
46015;BME280;36844;51.898;-0.874;2023-05-24T09:04:40;101495.97;;;18.57;
46015;BME280;36844;51.898;-0.874;2023-05-24T09:07:08;101498.66;;;18.57;
46015;BME280;36844;51.898;-0.874;2023-05-24T09:09:34;101498.25;;;18.55;
46015;BME280;36844;51.898;-0.874;2023-05-24T09:12:01;101488.97;;;18.53;
46015;BME280;36844;51.898;-0.874;2023-05-24T09:14:28;101484.75;;;18.52;
46015;BME280;36844;51.898;-0.874;2023-05-24T09:16:53;101484.34;;;18.50;
46015;BME280;36844;51.898;-0.874;2023-05-24T09:19:19;101490.09;;;18.48;
46015;BME280;36844;51.898;-0.874;2023-05-24T09:21:44;101506.69;;;18.47;
46015;BME280;36844;51.898;-0.874;2023-05-24T09:24:10;101507.81;;;18.46;
46015;BME280;36844;51.898;-0.874;2023-05-24T09:26:35;101506.66;;;18.43;
46015;BME280;36844;51.898;-0.874;2023-05-24T09:29:02;101503.16;;;18.43;
46015;BME280;36844;51.898;-0.874;2023-05-24T09:31:33;101507.38;;;18.40;
46015;BME280;36844;51.898;-0.874;2023-05-24T09:33:58;101503.13;;;18.39;
46015;BME280;36844;51.898;-0.874;2023-05-24T09:36:24;101499.66;;;18.39;
46015;BME280;36844;51.898;-0.874;2023-05-24T09:39:01;101492.72;;;18.38;
46015;BME280;36844;51.898;-0.874;2023-05-24T09:41:29;101486.53;;;18.37;
46015;BME280;36844;51.898;-0.874;2023-05-24T09:43:54;101494.63;;;18.37;
46015;BME280;36844;51.898;-0.874;2023-05-24T09:46:21;101497.69;;;18.36;
46015;BME280;36844;51.898;-0.874;2023-05-24T09:49:07;101488.09;;;18.35;
46015;BME280;36844;51.898;-0.874;2023-05-24T09:51:36;101493.03;;;18.33;
46015;BME280;36844;51.898;-0.874;2023-05-24T09:54:02;101492.25;;;18.32;
46015;BME280;36844;51.898;-0.874;2023-05-24T09:56:28;101488.81;;;18.32;
46015;BME280;36844;51.898;-0.874;2023-05-24T09:58:53;101486.13;;;18.32;
46015;BME280;36844;51.898;-0.874;2023-05-24T10:01:21;101484.16;;;18.32;
46015;BME280;36844;51.898;-0.874;2023-05-24T10:03:57;101486.13;;;18.32;
46015;BME280;36844;51.898;-0.874;2023-05-24T10:06:23;101487.66;;;18.33;
46015;BME280;36844;51.898;-0.874;2023-05-24T10:08:51;101491.50;;;18.32;
46015;BME280;36844;51.898;-0.874;2023-05-24T10:11:18;101486.88;;;18.32;
46015;BME280;36844;51.898;-0.874;2023-05-24T10:13:43;101483.81;;;18.34;
46015;BME280;36844;51.898;-0.874;2023-05-24T10:16:08;101483.03;;;18.33;
46015;BME280;36844;51.898;-0.874;2023-05-24T10:18:34;101485.38;;;18.35;
46015;BME280;36844;51.898;-0.874;2023-05-24T10:21:00;101483.44;;;18.35;
46015;BME280;36844;51.898;-0.874;2023-05-24T10:23:25;101482.28;;;18.36;
46015;BME280;36844;51.898;-0.874;2023-05-24T10:28:27;101475.75;;;18.37;
46015;BME280;36844;51.898;-0.874;2023-05-24T10:33:33;101470.00;;;18.39;
46015;BME280;36844;51.898;-0.874;2023-05-24T10:35:59;101465.00;;;18.41;
46015;BME280;36844;51.898;-0.874;2023-05-24T10:38:24;101466.91;;;18.40;
46015;BME280;36844;51.898;-0.874;2023-05-24T10:40:50;101475.81;;;18.44;
46015;BME280;36844;51.898;-0.874;2023-05-24T10:43:15;101467.34;;;18.46;
46015;BME280;36844;51.898;-0.874;2023-05-24T10:45:41;101461.94;;;18.46;
46015;BME280;36844;51.898;-0.874;2023-05-24T10:48:07;101465.03;;;18.48;
46015;BME280;36844;51.898;-0.874;2023-05-24T10:50:33;101469.31;;;18.49;
46015;BME280;36844;51.898;-0.874;2023-05-24T10:55:49;101458.94;;;18.51;
46015;BME280;36844;51.898;-0.874;2023-05-24T10:58:16;101458.53;;;18.52;
46015;BME280;36844;51.898;-0.874;2023-05-24T11:00:42;101462.78;;;18.53;
46015;BME280;36844;51.898;-0.874;2023-05-24T11:03:08;101463.56;;;18.54;
46015;BME280;36844;51.898;-0.874;2023-05-24T11:08:13;101468.59;;;18.55;
46015;BME280;36844;51.898;-0.874;2023-05-24T11:10:38;101458.19;;;18.57;
46015;BME280;36844;51.898;-0.874;2023-05-24T11:13:06;101461.66;;;18.58;
46015;BME280;36844;51.898;-0.874;2023-05-24T11:15:31;101455.91;;;18.59;
46015;BME280;36844;51.898;-0.874;2023-05-24T11:20:38;101461.31;;;18.63;
46015;BME280;36844;51.898;-0.874;2023-05-24T11:23:04;101459.03;;;18.65;
46015;BME280;36844;51.898;-0.874;2023-05-24T11:25:31;101465.19;;;18.65;
46015;BME280;36844;51.898;-0.874;2023-05-24T11:27:57;101462.09;;;18.67;
46015;BME280;36844;51.898;-0.874;2023-05-24T11:30:22;101458.25;;;18.68;
46015;BME280;36844;51.898;-0.874;2023-05-24T11:32:48;101449.41;;;18.71;
46015;BME280;36844;51.898;-0.874;2023-05-24T11:35:13;101450.97;;;18.72;
46015;BME280;36844;51.898;-0.874;2023-05-24T11:37:40;101448.69;;;18.74;
46015;BME280;36844;51.898;-0.874;2023-05-24T11:40:05;101456.38;;;18.75;
46015;BME280;36844;51.898;-0.874;2023-05-24T11:42:33;101450.63;;;18.77;
46015;BME280;36844;51.898;-0.874;2023-05-24T11:45:01;101452.16;;;18.78;
46015;BME280;36844;51.898;-0.874;2023-05-24T11:47:26;101451.00;;;18.79;
46015;BME280;36844;51.898;-0.874;2023-05-24T11:49:52;101451.44;;;18.81;
46015;BME280;36844;51.898;-0.874;2023-05-24T11:52:17;101451.03;;;18.83;
46015;BME280;36844;51.898;-0.874;2023-05-24T11:54:42;101447.19;;;18.84;
46015;BME280;36844;51.898;-0.874;2023-05-24T11:57:10;101447.97;;;18.84;
46015;BME280;36844;51.898;-0.874;2023-05-24T11:59:36;101455.69;;;18.86;
46015;BME280;36844;51.898;-0.874;2023-05-24T12:02:03;101452.63;;;18.87;
46015;BME280;36844;51.898;-0.874;2023-05-24T12:04:29;101454.94;;;18.89;
46015;BME280;36844;51.898;-0.874;2023-05-24T12:06:55;101449.16;;;18.90;
46015;BME280;36844;51.898;-0.874;2023-05-24T12:09:21;101452.63;;;18.91;
46015;BME280;36844;51.898;-0.874;2023-05-24T12:11:47;101444.16;;;18.92;
46015;BME280;36844;51.898;-0.874;2023-05-24T12:14:12;101443.03;;;18.93;
46015;BME280;36844;51.898;-0.874;2023-05-24T12:16:38;101454.56;;;18.94;
46015;BME280;36844;51.898;-0.874;2023-05-24T12:19:03;101453.44;;;18.95;
46015;BME280;36844;51.898;-0.874;2023-05-24T12:21:29;101453.44;;;18.95;
46015;BME280;36844;51.898;-0.874;2023-05-24T12:23:55;101450.34;;;18.96;
46015;BME280;36844;51.898;-0.874;2023-05-24T12:26:20;101449.22;;;18.97;
46015;BME280;36844;51.898;-0.874;2023-05-24T12:28:46;101449.97;;;18.98;
46015;BME280;36844;51.898;-0.874;2023-05-24T12:31:12;101446.88;;;18.99;
46015;BME280;36844;51.898;-0.874;2023-05-24T12:33:37;101445.75;;;19.00;
46015;BME280;36844;51.898;-0.874;2023-05-24T12:36:03;101453.84;;;19.00;
46015;BME280;36844;51.898;-0.874;2023-05-24T12:38:29;101447.69;;;19.03;
46015;BME280;36844;51.898;-0.874;2023-05-24T12:40:55;101441.50;;;19.03;
46015;BME280;36844;51.898;-0.874;2023-05-24T12:43:20;101445.78;;;19.04;
46015;BME280;36844;51.898;-0.874;2023-05-24T12:45:46;101439.25;;;19.05;
46015;BME280;36844;51.898;-0.874;2023-05-24T12:48:12;101434.97;;;19.07;
46015;BME280;36844;51.898;-0.874;2023-05-24T12:50:37;101434.63;;;19.09;
46015;BME280;36844;51.898;-0.874;2023-05-24T12:53:02;101431.50;;;19.10;
46015;BME280;36844;51.898;-0.874;2023-05-24T12:55:28;101429.25;;;19.12;
46015;BME280;36844;51.898;-0.874;2023-05-24T12:57:54;101435.38;;;19.13;
46015;BME280;36844;51.898;-0.874;2023-05-24T13:00:26;101427.69;;;19.15;
46015;BME280;36844;51.898;-0.874;2023-05-24T13:02:52;101425.78;;;19.15;
46015;BME280;36844;51.898;-0.874;2023-05-24T13:05:20;101424.59;;;19.16;
46015;BME280;36844;51.898;-0.874;2023-05-24T13:07:46;101416.91;;;19.18;
46015;BME280;36844;51.898;-0.874;2023-05-24T13:10:11;101431.97;;;19.19;
46015;BME280;36844;51.898;-0.874;2023-05-24T13:12:37;101421.16;;;19.19;
46015;BME280;36844;51.898;-0.874;2023-05-24T13:15:03;101415.34;;;19.21;
46015;BME280;36844;51.898;-0.874;2023-05-24T13:17:28;101416.13;;;19.21;
46015;BME280;36844;51.898;-0.874;2023-05-24T13:19:53;101415.75;;;19.23;
46015;BME280;36844;51.898;-0.874;2023-05-24T13:22:19;101414.63;;;19.24;
46015;BME280;36844;51.898;-0.874;2023-05-24T13:24:44;101407.25;;;19.24;
46015;BME280;36844;51.898;-0.874;2023-05-24T13:27:10;101413.09;;;19.26;
46015;BME280;36844;51.898;-0.874;2023-05-24T13:29:36;101413.09;;;19.26;
46015;BME280;36844;51.898;-0.874;2023-05-24T13:32:01;101410.00;;;19.28;
46015;BME280;36844;51.898;-0.874;2023-05-24T13:34:26;101406.13;;;19.29;
46015;BME280;36844;51.898;-0.874;2023-05-24T13:36:52;101414.63;;;19.31;
46015;BME280;36844;51.898;-0.874;2023-05-24T13:39:17;101415.41;;;19.31;
46015;BME280;36844;51.898;-0.874;2023-05-24T13:41:44;101414.25;;;19.32;
46015;BME280;36844;51.898;-0.874;2023-05-24T13:44:09;101421.19;;;19.33;
46015;BME280;36844;51.898;-0.874;2023-05-24T13:46:34;101409.25;;;19.34;
46015;BME280;36844;51.898;-0.874;2023-05-24T13:49:00;101416.22;;;19.35;